sensor_id;sensor_type;location;lat;lon;timestamp;P1;durP1;ratioP1;P2;durP2;ratioP2
69417;SDS011;56610;48.872;2.400;2023-03-11T00:00:15;4.68;;;2.70;;
69417;SDS011;56610;48.872;2.400;2023-03-11T00:02:43;3.92;;;2.40;;
69417;SDS011;56610;48.872;2.400;2023-03-11T00:05:12;5.40;;;3.30;;
69417;SDS011;56610;48.872;2.400;2023-03-11T00:07:41;4.68;;;4.13;;
69417;SDS011;56610;48.872;2.400;2023-03-11T00:10:07;5.63;;;5.07;;
69417;SDS011;56610;48.872;2.400;2023-03-11T00:12:37;5.53;;;4.78;;
69417;SDS011;56610;48.872;2.400;2023-03-11T00:15:03;5.18;;;4.07;;
69417;SDS011;56610;48.872;2.400;2023-03-11T00:17:28;5.20;;;4.70;;
69417;SDS011;56610;48.872;2.400;2023-03-11T00:19:54;6.63;;;6.03;;
69417;SDS011;56610;48.872;2.400;2023-03-11T00:22:20;6.60;;;5.82;;
69417;SDS011;56610;48.872;2.400;2023-03-11T00:24:45;6.03;;;5.40;;
69417;SDS011;56610;48.872;2.400;2023-03-11T00:27:11;6.80;;;6.10;;
69417;SDS011;56610;48.872;2.400;2023-03-11T00:29:36;5.60;;;5.10;;
69417;SDS011;56610;48.872;2.400;2023-03-11T00:32:02;5.43;;;4.85;;
69417;SDS011;56610;48.872;2.400;2023-03-11T00:34:27;5.72;;;5.13;;
69417;SDS011;56610;48.872;2.400;2023-03-11T00:36:53;5.43;;;4.85;;
69417;SDS011;56610;48.872;2.400;2023-03-11T00:39:18;5.35;;;4.32;;
69417;SDS011;56610;48.872;2.400;2023-03-11T00:41:44;4.85;;;4.30;;
69417;SDS011;56610;48.872;2.400;2023-03-11T00:44:10;4.20;;;3.80;;
69417;SDS011;56610;48.872;2.400;2023-03-11T00:46:36;5.82;;;3.80;;
69417;SDS011;56610;48.872;2.400;2023-03-11T00:49:02;5.13;;;3.67;;
69417;SDS011;56610;48.872;2.400;2023-03-11T00:51:27;4.78;;;3.40;;
69417;SDS011;56610;48.872;2.400;2023-03-11T00:53:53;4.05;;;3.20;;
69417;SDS011;56610;48.872;2.400;2023-03-11T00:56:19;5.60;;;2.78;;
69417;SDS011;56610;48.872;2.400;2023-03-11T00:58:44;4.13;;;2.65;;
69417;SDS011;56610;48.872;2.400;2023-03-11T01:01:11;4.53;;;2.95;;
69417;SDS011;56610;48.872;2.400;2023-03-11T01:03:41;3.88;;;2.97;;
69417;SDS011;56610;48.872;2.400;2023-03-11T01:06:07;6.15;;;3.30;;
69417;SDS011;56610;48.872;2.400;2023-03-11T01:08:32;3.22;;;2.80;;
69417;SDS011;56610;48.872;2.400;2023-03-11T01:10:58;4.47;;;3.13;;
69417;SDS011;56610;48.872;2.400;2023-03-11T01:13:26;4.82;;;3.10;;
69417;SDS011;56610;48.872;2.400;2023-03-11T01:15:53;5.03;;;3.20;;
69417;SDS011;56610;48.872;2.400;2023-03-11T01:18:18;5.30;;;3.17;;
69417;SDS011;56610;48.872;2.400;2023-03-11T01:20:44;3.58;;;2.85;;
69417;SDS011;56610;48.872;2.400;2023-03-11T01:23:11;4.28;;;2.80;;
69417;SDS011;56610;48.872;2.400;2023-03-11T01:25:38;3.47;;;2.88;;
69417;SDS011;56610;48.872;2.400;2023-03-11T01:28:04;3.92;;;2.53;;
69417;SDS011;56610;48.872;2.400;2023-03-11T01:30:32;4.05;;;2.65;;
69417;SDS011;56610;48.872;2.400;2023-03-11T01:32:58;4.97;;;2.65;;
69417;SDS011;56610;48.872;2.400;2023-03-11T01:35:25;4.25;;;2.65;;
69417;SDS011;56610;48.872;2.400;2023-03-11T01:37:52;3.55;;;2.60;;
69417;SDS011;56610;48.872;2.400;2023-03-11T01:42:52;3.47;;;2.20;;
69417;SDS011;56610;48.872;2.400;2023-03-11T01:48:11;4.57;;;2.33;;
69417;SDS011;56610;48.872;2.400;2023-03-11T01:50:38;3.30;;;2.17;;
69417;SDS011;56610;48.872;2.400;2023-03-11T01:53:10;4.57;;;2.30;;
69417;SDS011;56610;48.872;2.400;2023-03-11T01:55:39;3.42;;;2.00;;
69417;SDS011;56610;48.872;2.400;2023-03-11T01:58:07;3.78;;;2.00;;
69417;SDS011;56610;48.872;2.400;2023-03-11T02:00:35;3.42;;;1.75;;
69417;SDS011;56610;48.872;2.400;2023-03-11T02:03:05;2.53;;;1.85;;
69417;SDS011;56610;48.872;2.400;2023-03-11T02:05:38;3.10;;;1.70;;
69417;SDS011;56610;48.872;2.400;2023-03-11T02:08:04;2.40;;;1.45;;
69417;SDS011;56610;48.872;2.400;2023-03-11T02:10:31;3.00;;;1.63;;
69417;SDS011;56610;48.872;2.400;2023-03-11T02:12:56;2.78;;;1.70;;
69417;SDS011;56610;48.872;2.400;2023-03-11T02:15:22;3.33;;;1.60;;
69417;SDS011;56610;48.872;2.400;2023-03-11T02:17:48;3.33;;;1.40;;
69417;SDS011;56610;48.872;2.400;2023-03-11T02:23:12;2.28;;;1.23;;
69417;SDS011;56610;48.872;2.400;2023-03-11T02:25:40;1.85;;;1.02;;
69417;SDS011;56610;48.872;2.400;2023-03-11T02:28:20;2.28;;;1.73;;
69417;SDS011;56610;48.872;2.400;2023-03-11T02:30:46;2.25;;;1.55;;
69417;SDS011;56610;48.872;2.400;2023-03-11T02:33:14;2.40;;;1.40;;
69417;SDS011;56610;48.872;2.400;2023-03-11T02:35:40;2.97;;;1.50;;
69417;SDS011;56610;48.872;2.400;2023-03-11T02:38:06;2.08;;;1.10;;
69417;SDS011;56610;48.872;2.400;2023-03-11T02:43:28;3.17;;;1.50;;
69417;SDS011;56610;48.872;2.400;2023-03-11T02:45:58;2.13;;;1.35;;
69417;SDS011;56610;48.872;2.400;2023-03-11T02:48:25;2.70;;;1.50;;
69417;SDS011;56610;48.872;2.400;2023-03-11T02:50:52;2.88;;;1.35;;
69417;SDS011;56610;48.872;2.400;2023-03-11T02:53:18;2.38;;;1.67;;
69417;SDS011;56610;48.872;2.400;2023-03-11T02:55:44;4.95;;;1.45;;
69417;SDS011;56610;48.872;2.400;2023-03-11T02:58:09;2.50;;;1.73;;
69417;SDS011;56610;48.872;2.400;2023-03-11T03:00:35;2.22;;;1.60;;
69417;SDS011;56610;48.872;2.400;2023-03-11T03:03:01;1.60;;;1.40;;
69417;SDS011;56610;48.872;2.400;2023-03-11T03:05:27;2.75;;;1.40;;
69417;SDS011;56610;48.872;2.400;2023-03-11T03:07:52;2.47;;;1.50;;
69417;SDS011;56610;48.872;2.400;2023-03-11T03:10:19;3.67;;;1.63;;
69417;SDS011;56610;48.872;2.400;2023-03-11T03:12:45;2.97;;;1.60;;
69417;SDS011;56610;48.872;2.400;2023-03-11T03:15:11;3.38;;;1.77;;
69417;SDS011;56610;48.872;2.400;2023-03-11T03:17:37;3.63;;;1.88;;
69417;SDS011;56610;48.872;2.400;2023-03-11T03:20:03;4.05;;;2.00;;
69417;SDS011;56610;48.872;2.400;2023-03-11T03:22:31;1.75;;;1.40;;
69417;SDS011;56610;48.872;2.400;2023-03-11T03:24:57;2.25;;;1.52;;
69417;SDS011;56610;48.872;2.400;2023-03-11T03:27:22;2.72;;;1.70;;
69417;SDS011;56610;48.872;2.400;2023-03-11T03:29:48;4.55;;;2.00;;
69417;SDS011;56610;48.872;2.400;2023-03-11T03:32:14;3.55;;;2.03;;
69417;SDS011;56610;48.872;2.400;2023-03-11T03:34:39;3.72;;;1.80;;
69417;SDS011;56610;48.872;2.400;2023-03-11T03:37:05;3.60;;;2.20;;
69417;SDS011;56610;48.872;2.400;2023-03-11T03:39:31;3.40;;;2.20;;
69417;SDS011;56610;48.872;2.400;2023-03-11T03:41:57;2.97;;;1.90;;
69417;SDS011;56610;48.872;2.400;2023-03-11T03:44:22;2.80;;;1.60;;
69417;SDS011;56610;48.872;2.400;2023-03-11T03:46:48;2.55;;;1.60;;
69417;SDS011;56610;48.872;2.400;2023-03-11T03:49:14;2.90;;;1.50;;
69417;SDS011;56610;48.872;2.400;2023-03-11T03:51:39;2.83;;;1.90;;
69417;SDS011;56610;48.872;2.400;2023-03-11T03:54:05;3.05;;;1.58;;
69417;SDS011;56610;48.872;2.400;2023-03-11T03:56:30;2.33;;;1.50;;
69417;SDS011;56610;48.872;2.400;2023-03-11T03:58:56;3.15;;;1.67;;
69417;SDS011;56610;48.872;2.400;2023-03-11T04:01:21;3.15;;;1.80;;
69417;SDS011;56610;48.872;2.400;2023-03-11T04:03:47;3.03;;;1.90;;
69417;SDS011;56610;48.872;2.400;2023-03-11T04:06:20;3.17;;;1.60;;
69417;SDS011;56610;48.872;2.400;2023-03-11T04:08:49;2.97;;;1.77;;
69417;SDS011;56610;48.872;2.400;2023-03-11T04:11:16;3.92;;;2.08;;
69417;SDS011;56610;48.872;2.400;2023-03-11T04:13:42;3.17;;;2.15;;
69417;SDS011;56610;48.872;2.400;2023-03-11T04:16:09;3.80;;;2.00;;
69417;SDS011;56610;48.872;2.400;2023-03-11T04:18:38;2.45;;;2.00;;
69417;SDS011;56610;48.872;2.400;2023-03-11T04:21:04;3.13;;;2.00;;
69417;SDS011;56610;48.872;2.400;2023-03-11T04:23:30;2.75;;;2.40;;
69417;SDS011;56610;48.872;2.400;2023-03-11T04:25:56;2.75;;;2.20;;
69417;SDS011;56610;48.872;2.400;2023-03-11T04:28:22;3.28;;;2.35;;
69417;SDS011;56610;48.872;2.400;2023-03-11T04:30:47;5.13;;;2.00;;
69417;SDS011;56610;48.872;2.400;2023-03-11T04:33:13;3.03;;;2.35;;
69417;SDS011;56610;48.872;2.400;2023-03-11T04:35:39;2.97;;;2.22;;
69417;SDS011;56610;48.872;2.400;2023-03-11T04:38:04;3.53;;;2.33;;
69417;SDS011;56610;48.872;2.400;2023-03-11T04:40:30;3.17;;;2.05;;
69417;SDS011;56610;48.872;2.400;2023-03-11T04:42:56;3.15;;;1.90;;
69417;SDS011;56610;48.872;2.400;2023-03-11T04:45:21;3.00;;;2.40;;
69417;SDS011;56610;48.872;2.400;2023-03-11T04:47:47;4.47;;;2.08;;
69417;SDS011;56610;48.872;2.400;2023-03-11T04:50:14;2.78;;;2.20;;
69417;SDS011;56610;48.872;2.400;2023-03-11T04:52:40;2.58;;;2.30;;
69417;SDS011;56610;48.872;2.400;2023-03-11T04:55:06;3.13;;;1.90;;
69417;SDS011;56610;48.872;2.400;2023-03-11T04:57:32;2.88;;;2.15;;
69417;SDS011;56610;48.872;2.400;2023-03-11T04:59:58;2.58;;;2.13;;
69417;SDS011;56610;48.872;2.400;2023-03-11T05:02:23;3.30;;;2.05;;
69417;SDS011;56610;48.872;2.400;2023-03-11T05:04:49;2.92;;;2.50;;
69417;SDS011;56610;48.872;2.400;2023-03-11T05:07:15;2.50;;;2.30;;
69417;SDS011;56610;48.872;2.400;2023-03-11T05:09:40;3.65;;;2.10;;
69417;SDS011;56610;48.872;2.400;2023-03-11T05:12:06;2.95;;;2.15;;
69417;SDS011;56610;48.872;2.400;2023-03-11T05:14:34;3.50;;;2.15;;
69417;SDS011;56610;48.872;2.400;2023-03-11T05:17:00;2.47;;;2.22;;
69417;SDS011;56610;48.872;2.400;2023-03-11T05:19:25;2.30;;;2.08;;
69417;SDS011;56610;48.872;2.400;2023-03-11T05:22:01;3.00;;;1.92;;
69417;SDS011;56610;48.872;2.400;2023-03-11T05:24:28;2.78;;;1.95;;
69417;SDS011;56610;48.872;2.400;2023-03-11T05:26:54;2.78;;;2.10;;
69417;SDS011;56610;48.872;2.400;2023-03-11T05:29:20;2.42;;;1.90;;
69417;SDS011;56610;48.872;2.400;2023-03-11T05:31:46;1.90;;;1.70;;
69417;SDS011;56610;48.872;2.400;2023-03-11T05:34:12;3.03;;;1.80;;
69417;SDS011;56610;48.872;2.400;2023-03-11T05:36:38;2.60;;;1.80;;
69417;SDS011;56610;48.872;2.400;2023-03-11T05:39:04;3.22;;;1.98;;
69417;SDS011;56610;48.872;2.400;2023-03-11T05:41:29;3.67;;;2.20;;
69417;SDS011;56610;48.872;2.400;2023-03-11T05:43:55;3.67;;;2.00;;
69417;SDS011;56610;48.872;2.400;2023-03-11T05:46:20;3.90;;;2.08;;
69417;SDS011;56610;48.872;2.400;2023-03-11T05:48:46;3.13;;;2.08;;
69417;SDS011;56610;48.872;2.400;2023-03-11T05:51:12;2.10;;;1.85;;
69417;SDS011;56610;48.872;2.400;2023-03-11T05:53:40;1.90;;;1.65;;
69417;SDS011;56610;48.872;2.400;2023-03-11T05:56:12;3.70;;;1.98;;
69417;SDS011;56610;48.872;2.400;2023-03-11T05:58:38;1.90;;;1.80;;
69417;SDS011;56610;48.872;2.400;2023-03-11T06:01:07;2.55;;;1.70;;
69417;SDS011;56610;48.872;2.400;2023-03-11T06:03:38;2.35;;;1.50;;
69417;SDS011;56610;48.872;2.400;2023-03-11T06:06:05;1.70;;;1.60;;
69417;SDS011;56610;48.872;2.400;2023-03-11T06:08:32;4.07;;;1.67;;
69417;SDS011;56610;48.872;2.400;2023-03-11T06:11:01;2.70;;;1.85;;
69417;SDS011;56610;48.872;2.400;2023-03-11T06:13:28;2.30;;;2.00;;
69417;SDS011;56610;48.872;2.400;2023-03-11T06:15:53;2.50;;;1.65;;
69417;SDS011;56610;48.872;2.400;2023-03-11T06:18:19;3.72;;;1.77;;
69417;SDS011;56610;48.872;2.400;2023-03-11T06:20:44;2.97;;;1.85;;
69417;SDS011;56610;48.872;2.400;2023-03-11T06:23:10;2.38;;;2.00;;
69417;SDS011;56610;48.872;2.400;2023-03-11T06:25:36;3.38;;;2.03;;
69417;SDS011;56610;48.872;2.400;2023-03-11T06:28:01;3.13;;;1.88;;
69417;SDS011;56610;48.872;2.400;2023-03-11T06:30:27;3.65;;;2.03;;
69417;SDS011;56610;48.872;2.400;2023-03-11T06:32:52;2.22;;;2.03;;
69417;SDS011;56610;48.872;2.400;2023-03-11T06:35:19;2.75;;;1.92;;
69417;SDS011;56610;48.872;2.400;2023-03-11T06:37:44;4.35;;;2.15;;
69417;SDS011;56610;48.872;2.400;2023-03-11T06:40:10;3.05;;;2.08;;
69417;SDS011;56610;48.872;2.400;2023-03-11T06:42:36;3.42;;;2.20;;
69417;SDS011;56610;48.872;2.400;2023-03-11T06:45:02;3.58;;;2.03;;
69417;SDS011;56610;48.872;2.400;2023-03-11T06:47:28;3.38;;;1.85;;
69417;SDS011;56610;48.872;2.400;2023-03-11T06:49:53;3.08;;;1.70;;
69417;SDS011;56610;48.872;2.400;2023-03-11T06:52:19;4.22;;;2.10;;
69417;SDS011;56610;48.872;2.400;2023-03-11T06:54:45;3.45;;;2.17;;
69417;SDS011;56610;48.872;2.400;2023-03-11T06:57:11;3.13;;;1.98;;
69417;SDS011;56610;48.872;2.400;2023-03-11T06:59:36;3.83;;;2.30;;
69417;SDS011;56610;48.872;2.400;2023-03-11T07:02:03;2.92;;;1.92;;
69417;SDS011;56610;48.872;2.400;2023-03-11T07:04:30;3.17;;;2.10;;
69417;SDS011;56610;48.872;2.400;2023-03-11T07:06:56;3.17;;;1.92;;
69417;SDS011;56610;48.872;2.400;2023-03-11T07:09:22;2.20;;;2.00;;
69417;SDS011;56610;48.872;2.400;2023-03-11T07:11:49;3.63;;;2.00;;
69417;SDS011;56610;48.872;2.400;2023-03-11T07:14:15;4.07;;;2.42;;
69417;SDS011;56610;48.872;2.400;2023-03-11T07:16:42;3.58;;;2.10;;
69417;SDS011;56610;48.872;2.400;2023-03-11T07:19:09;1.77;;;1.63;;
69417;SDS011;56610;48.872;2.400;2023-03-11T07:21:35;2.85;;;2.20;;
69417;SDS011;56610;48.872;2.400;2023-03-11T07:24:01;4.38;;;2.20;;
69417;SDS011;56610;48.872;2.400;2023-03-11T07:26:27;3.38;;;2.20;;
69417;SDS011;56610;48.872;2.400;2023-03-11T07:28:55;3.07;;;2.13;;
69417;SDS011;56610;48.872;2.400;2023-03-11T07:31:22;3.40;;;2.25;;
69417;SDS011;56610;48.872;2.400;2023-03-11T07:33:49;3.80;;;2.40;;
69417;SDS011;56610;48.872;2.400;2023-03-11T07:36:16;4.93;;;2.20;;
69417;SDS011;56610;48.872;2.400;2023-03-11T07:41:10;3.25;;;2.08;;
69417;SDS011;56610;48.872;2.400;2023-03-11T07:43:36;5.07;;;2.28;;
69417;SDS011;56610;48.872;2.400;2023-03-11T07:46:04;4.03;;;2.10;;
69417;SDS011;56610;48.872;2.400;2023-03-11T07:48:32;4.35;;;2.30;;
69417;SDS011;56610;48.872;2.400;2023-03-11T07:51:19;3.45;;;2.03;;
69417;SDS011;56610;48.872;2.400;2023-03-11T07:53:47;2.50;;;2.00;;
69417;SDS011;56610;48.872;2.400;2023-03-11T07:56:14;3.85;;;2.10;;
69417;SDS011;56610;48.872;2.400;2023-03-11T07:58:41;2.72;;;1.92;;
69417;SDS011;56610;48.872;2.400;2023-03-11T08:01:08;3.22;;;1.90;;
69417;SDS011;56610;48.872;2.400;2023-03-11T08:03:36;3.72;;;1.98;;
69417;SDS011;56610;48.872;2.400;2023-03-11T08:06:02;3.90;;;1.88;;
69417;SDS011;56610;48.872;2.400;2023-03-11T08:08:35;4.05;;;1.90;;
69417;SDS011;56610;48.872;2.400;2023-03-11T08:11:02;4.55;;;2.03;;
69417;SDS011;56610;48.872;2.400;2023-03-11T08:13:28;3.45;;;2.00;;
69417;SDS011;56610;48.872;2.400;2023-03-11T08:15:53;3.85;;;1.77;;
69417;SDS011;56610;48.872;2.400;2023-03-11T08:18:19;3.45;;;2.10;;
69417;SDS011;56610;48.872;2.400;2023-03-11T08:20:44;2.97;;;1.88;;
69417;SDS011;56610;48.872;2.400;2023-03-11T08:23:10;3.58;;;2.00;;
69417;SDS011;56610;48.872;2.400;2023-03-11T08:25:39;3.00;;;1.77;;
69417;SDS011;56610;48.872;2.400;2023-03-11T08:28:05;2.85;;;1.92;;
69417;SDS011;56610;48.872;2.400;2023-03-11T08:30:31;3.70;;;2.00;;
69417;SDS011;56610;48.872;2.400;2023-03-11T08:32:57;2.97;;;1.90;;
69417;SDS011;56610;48.872;2.400;2023-03-11T08:35:23;3.05;;;1.88;;
69417;SDS011;56610;48.872;2.400;2023-03-11T08:37:50;4.93;;;2.50;;
69417;SDS011;56610;48.872;2.400;2023-03-11T08:40:15;3.08;;;2.00;;
69417;SDS011;56610;48.872;2.400;2023-03-11T08:42:41;2.47;;;2.10;;
69417;SDS011;56610;48.872;2.400;2023-03-11T08:45:07;4.50;;;2.13;;
69417;SDS011;56610;48.872;2.400;2023-03-11T08:47:36;3.67;;;2.13;;
69417;SDS011;56610;48.872;2.400;2023-03-11T08:50:04;2.85;;;2.05;;
69417;SDS011;56610;48.872;2.400;2023-03-11T08:52:31;5.47;;;2.15;;
69417;SDS011;56610;48.872;2.400;2023-03-11T08:54:56;4.03;;;2.50;;
69417;SDS011;56610;48.872;2.400;2023-03-11T08:57:22;5.72;;;2.28;;
69417;SDS011;56610;48.872;2.400;2023-03-11T09:02:35;5.07;;;2.30;;
69417;SDS011;56610;48.872;2.400;2023-03-11T09:05:00;3.63;;;2.25;;
69417;SDS011;56610;48.872;2.400;2023-03-11T09:07:26;4.10;;;1.77;;
69417;SDS011;56610;48.872;2.400;2023-03-11T09:09:52;2.85;;;1.98;;
69417;SDS011;56610;48.872;2.400;2023-03-11T09:12:18;3.60;;;1.88;;
69417;SDS011;56610;48.872;2.400;2023-03-11T09:14:44;2.88;;;1.90;;
69417;SDS011;56610;48.872;2.400;2023-03-11T09:17:10;3.72;;;1.80;;
69417;SDS011;56610;48.872;2.400;2023-03-11T09:19:38;2.83;;;1.83;;
69417;SDS011;56610;48.872;2.400;2023-03-11T09:22:04;3.67;;;2.08;;
69417;SDS011;56610;48.872;2.400;2023-03-11T09:24:34;3.30;;;2.13;;
69417;SDS011;56610;48.872;2.400;2023-03-11T09:27:00;2.40;;;2.00;;
69417;SDS011;56610;48.872;2.400;2023-03-11T09:29:26;4.13;;;2.30;;
69417;SDS011;56610;48.872;2.400;2023-03-11T09:31:52;5.80;;;2.00;;
69417;SDS011;56610;48.872;2.400;2023-03-11T09:34:17;3.83;;;2.10;;
69417;SDS011;56610;48.872;2.400;2023-03-11T09:36:43;3.47;;;1.70;;
69417;SDS011;56610;48.872;2.400;2023-03-11T09:39:09;4.03;;;2.03;;
69417;SDS011;56610;48.872;2.400;2023-03-11T09:41:38;4.43;;;2.10;;
69417;SDS011;56610;48.872;2.400;2023-03-11T09:50:12;2.15;;;1.77;;
69417;SDS011;56610;48.872;2.400;2023-03-11T09:52:45;2.10;;;1.88;;
69417;SDS011;56610;48.872;2.400;2023-03-11T09:55:46;3.72;;;2.10;;
69417;SDS011;56610;48.872;2.400;2023-03-11T10:01:22;3.63;;;1.83;;
69417;SDS011;56610;48.872;2.400;2023-03-11T10:03:51;4.18;;;1.73;;
69417;SDS011;56610;48.872;2.400;2023-03-11T10:06:21;3.10;;;2.00;;
69417;SDS011;56610;48.872;2.400;2023-03-11T10:08:53;3.78;;;2.05;;
69417;SDS011;56610;48.872;2.400;2023-03-11T10:20:01;5.03;;;1.70;;
69417;SDS011;56610;48.872;2.400;2023-03-11T10:24:56;3.13;;;1.70;;
69417;SDS011;56610;48.872;2.400;2023-03-11T10:27:31;3.13;;;1.60;;
69417;SDS011;56610;48.872;2.400;2023-03-11T10:39:02;2.95;;;1.40;;
69417;SDS011;56610;48.872;2.400;2023-03-11T10:41:31;4.07;;;1.42;;
69417;SDS011;56610;48.872;2.400;2023-03-11T10:44:05;2.10;;;1.73;;
69417;SDS011;56610;48.872;2.400;2023-03-11T10:46:38;3.78;;;1.77;;
69417;SDS011;56610;48.872;2.400;2023-03-11T10:49:04;2.78;;;1.50;;
69417;SDS011;56610;48.872;2.400;2023-03-11T10:51:37;2.53;;;1.40;;
69417;SDS011;56610;48.872;2.400;2023-03-11T10:54:03;3.17;;;1.50;;
69417;SDS011;56610;48.872;2.400;2023-03-11T10:56:33;2.88;;;1.63;;
69417;SDS011;56610;48.872;2.400;2023-03-11T10:59:00;3.50;;;1.92;;
69417;SDS011;56610;48.872;2.400;2023-03-11T11:01:27;3.30;;;1.70;;
69417;SDS011;56610;48.872;2.400;2023-03-11T11:03:54;2.47;;;1.77;;
69417;SDS011;56610;48.872;2.400;2023-03-11T11:11:42;3.60;;;1.92;;
69417;SDS011;56610;48.872;2.400;2023-03-11T11:14:24;4.07;;;1.77;;
69417;SDS011;56610;48.872;2.400;2023-03-11T11:16:50;3.22;;;1.58;;
69417;SDS011;56610;48.872;2.400;2023-03-11T11:19:16;3.00;;;1.90;;
69417;SDS011;56610;48.872;2.400;2023-03-11T11:21:46;5.55;;;2.10;;
69417;SDS011;56610;48.872;2.400;2023-03-11T11:24:26;1.92;;;1.38;;
69417;SDS011;56610;48.872;2.400;2023-03-11T11:32:32;1.67;;;1.40;;
69417;SDS011;56610;48.872;2.400;2023-03-11T11:34:59;3.83;;;1.80;;
69417;SDS011;56610;48.872;2.400;2023-03-11T11:37:35;1.92;;;1.50;;
69417;SDS011;56610;48.872;2.400;2023-03-11T11:40:05;2.08;;;1.25;;
69417;SDS011;56610;48.872;2.400;2023-03-11T11:43:05;1.90;;;1.45;;
69417;SDS011;56610;48.872;2.400;2023-03-11T11:45:33;3.33;;;1.40;;
69417;SDS011;56610;48.872;2.400;2023-03-11T11:48:13;2.03;;;1.23;;
69417;SDS011;56610;48.872;2.400;2023-03-11T11:50:56;3.13;;;1.70;;
69417;SDS011;56610;48.872;2.400;2023-03-11T11:53:43;2.30;;;1.40;;
69417;SDS011;56610;48.872;2.400;2023-03-11T11:56:16;2.78;;;1.60;;
69417;SDS011;56610;48.872;2.400;2023-03-11T11:58:42;2.45;;;1.45;;
69417;SDS011;56610;48.872;2.400;2023-03-11T12:04:24;2.17;;;1.60;;
69417;SDS011;56610;48.872;2.400;2023-03-11T12:07:09;2.15;;;1.42;;
69417;SDS011;56610;48.872;2.400;2023-03-11T12:12:28;2.42;;;1.42;;
69417;SDS011;56610;48.872;2.400;2023-03-11T12:15:14;3.27;;;1.60;;
69417;SDS011;56610;48.872;2.400;2023-03-11T12:17:45;2.40;;;1.55;;
69417;SDS011;56610;48.872;2.400;2023-03-11T12:20:14;2.92;;;1.50;;
69417;SDS011;56610;48.872;2.400;2023-03-11T12:23:08;2.13;;;1.50;;
69417;SDS011;56610;48.872;2.400;2023-03-11T12:29:00;2.03;;;1.48;;
69417;SDS011;56610;48.872;2.400;2023-03-11T12:31:33;2.22;;;1.50;;
69417;SDS011;56610;48.872;2.400;2023-03-11T12:34:03;3.35;;;1.58;;
69417;SDS011;56610;48.872;2.400;2023-03-11T12:36:34;3.63;;;1.98;;
69417;SDS011;56610;48.872;2.400;2023-03-11T12:39:06;2.97;;;1.52;;
69417;SDS011;56610;48.872;2.400;2023-03-11T12:41:44;2.65;;;1.58;;
69417;SDS011;56610;48.872;2.400;2023-03-11T12:49:22;2.42;;;1.50;;
69417;SDS011;56610;48.872;2.400;2023-03-11T12:54:36;2.33;;;1.30;;
69417;SDS011;56610;48.872;2.400;2023-03-11T12:57:22;1.73;;;1.30;;
69417;SDS011;56610;48.872;2.400;2023-03-11T13:03:13;2.85;;;1.70;;
69417;SDS011;56610;48.872;2.400;2023-03-11T13:08:51;3.42;;;1.25;;
69417;SDS011;56610;48.872;2.400;2023-03-11T13:13:50;3.33;;;1.33;;
69417;SDS011;56610;48.872;2.400;2023-03-11T13:18:45;2.17;;;1.30;;
69417;SDS011;56610;48.872;2.400;2023-03-11T13:23:50;3.35;;;1.45;;
69417;SDS011;56610;48.872;2.400;2023-03-11T13:40:15;2.92;;;1.38;;
69417;SDS011;56610;48.872;2.400;2023-03-11T13:42:56;3.10;;;1.30;;
69417;SDS011;56610;48.872;2.400;2023-03-11T13:45:28;2.33;;;1.23;;
69417;SDS011;56610;48.872;2.400;2023-03-11T13:47:57;2.05;;;1.50;;
69417;SDS011;56610;48.872;2.400;2023-03-11T13:50:27;4.20;;;1.35;;
69417;SDS011;56610;48.872;2.400;2023-03-11T13:52:55;2.40;;;1.48;;
69417;SDS011;56610;48.872;2.400;2023-03-11T13:55:32;3.20;;;1.38;;
69417;SDS011;56610;48.872;2.400;2023-03-11T13:58:00;2.63;;;1.23;;
69417;SDS011;56610;48.872;2.400;2023-03-11T14:00:37;2.83;;;1.90;;
69417;SDS011;56610;48.872;2.400;2023-03-11T14:03:13;3.03;;;1.20;;
69417;SDS011;56610;48.872;2.400;2023-03-11T14:05:44;3.53;;;1.77;;
69417;SDS011;56610;48.872;2.400;2023-03-11T14:08:12;2.55;;;1.40;;
69417;SDS011;56610;48.872;2.400;2023-03-11T14:10:52;1.83;;;1.40;;
69417;SDS011;56610;48.872;2.400;2023-03-11T14:13:22;2.53;;;1.50;;
69417;SDS011;56610;48.872;2.400;2023-03-11T14:15:53;1.65;;;1.27;;
69417;SDS011;56610;48.872;2.400;2023-03-11T14:20:53;3.25;;;1.48;;
69417;SDS011;56610;48.872;2.400;2023-03-11T14:23:27;1.48;;;1.30;;
69417;SDS011;56610;48.872;2.400;2023-03-11T14:25:58;3.20;;;1.70;;
69417;SDS011;56610;48.872;2.400;2023-03-11T14:28:26;2.25;;;1.13;;
69417;SDS011;56610;48.872;2.400;2023-03-11T14:30:58;1.95;;;1.30;;
69417;SDS011;56610;48.872;2.400;2023-03-11T14:33:25;4.30;;;1.60;;
69417;SDS011;56610;48.872;2.400;2023-03-11T14:35:55;3.83;;;1.70;;
69417;SDS011;56610;48.872;2.400;2023-03-11T14:38:24;3.22;;;1.65;;
69417;SDS011;56610;48.872;2.400;2023-03-11T14:40:52;2.55;;;1.80;;
69417;SDS011;56610;48.872;2.400;2023-03-11T14:43:30;2.17;;;1.70;;
69417;SDS011;56610;48.872;2.400;2023-03-11T14:45:58;1.50;;;1.40;;
69417;SDS011;56610;48.872;2.400;2023-03-11T14:50:51;2.45;;;1.60;;
69417;SDS011;56610;48.872;2.400;2023-03-11T14:53:25;2.28;;;1.48;;
69417;SDS011;56610;48.872;2.400;2023-03-11T14:56:12;2.95;;;1.50;;
69417;SDS011;56610;48.872;2.400;2023-03-11T14:58:53;3.55;;;1.48;;
69417;SDS011;56610;48.872;2.400;2023-03-11T15:01:40;2.70;;;1.60;;
69417;SDS011;56610;48.872;2.400;2023-03-11T15:04:09;3.45;;;1.70;;
69417;SDS011;56610;48.872;2.400;2023-03-11T15:06:41;2.30;;;1.52;;
69417;SDS011;56610;48.872;2.400;2023-03-11T15:14:31;4.15;;;1.85;;
69417;SDS011;56610;48.872;2.400;2023-03-11T15:17:15;3.28;;;1.70;;
69417;SDS011;56610;48.872;2.400;2023-03-11T15:19:55;2.15;;;1.55;;
69417;SDS011;56610;48.872;2.400;2023-03-11T15:22:26;4.05;;;1.98;;
69417;SDS011;56610;48.872;2.400;2023-03-11T15:24:59;4.38;;;1.90;;
69417;SDS011;56610;48.872;2.400;2023-03-11T15:27:33;2.35;;;1.63;;
69417;SDS011;56610;48.872;2.400;2023-03-11T15:30:02;2.95;;;1.90;;
69417;SDS011;56610;48.872;2.400;2023-03-11T15:32:49;3.05;;;1.60;;
69417;SDS011;56610;48.872;2.400;2023-03-11T15:37:43;3.13;;;1.80;;
69417;SDS011;56610;48.872;2.400;2023-03-11T15:40:16;3.05;;;1.75;;
69417;SDS011;56610;48.872;2.400;2023-03-11T15:42:45;3.42;;;1.80;;
69417;SDS011;56610;48.872;2.400;2023-03-11T15:47:38;2.40;;;1.60;;
69417;SDS011;56610;48.872;2.400;2023-03-11T15:52:41;2.38;;;1.60;;
69417;SDS011;56610;48.872;2.400;2023-03-11T15:55:06;2.35;;;1.80;;
69417;SDS011;56610;48.872;2.400;2023-03-11T15:57:35;3.38;;;2.05;;
69417;SDS011;56610;48.872;2.400;2023-03-11T16:00:01;2.90;;;1.50;;
69417;SDS011;56610;48.872;2.400;2023-03-11T16:02:28;4.30;;;1.80;;
69417;SDS011;56610;48.872;2.400;2023-03-11T16:04:55;2.25;;;1.70;;
69417;SDS011;56610;48.872;2.400;2023-03-11T16:07:22;3.00;;;2.08;;
69417;SDS011;56610;48.872;2.400;2023-03-11T16:09:47;2.28;;;1.90;;
69417;SDS011;56610;48.872;2.400;2023-03-11T16:12:13;3.38;;;1.77;;
69417;SDS011;56610;48.872;2.400;2023-03-11T16:14:44;3.08;;;1.90;;
69417;SDS011;56610;48.872;2.400;2023-03-11T16:17:10;4.30;;;1.90;;
69417;SDS011;56610;48.872;2.400;2023-03-11T16:19:38;2.55;;;1.73;;
69417;SDS011;56610;48.872;2.400;2023-03-11T16:22:23;2.25;;;1.73;;
69417;SDS011;56610;48.872;2.400;2023-03-11T16:24:56;2.35;;;1.70;;
69417;SDS011;56610;48.872;2.400;2023-03-11T16:27:24;2.88;;;2.10;;
69417;SDS011;56610;48.872;2.400;2023-03-11T16:29:49;2.85;;;2.38;;
69417;SDS011;56610;48.872;2.400;2023-03-11T16:32:15;4.18;;;2.30;;
69417;SDS011;56610;48.872;2.400;2023-03-11T16:34:40;3.65;;;2.05;;
69417;SDS011;56610;48.872;2.400;2023-03-11T16:37:06;3.88;;;1.90;;
69417;SDS011;56610;48.872;2.400;2023-03-11T16:39:32;3.88;;;2.10;;
69417;SDS011;56610;48.872;2.400;2023-03-11T16:41:58;3.78;;;2.13;;
69417;SDS011;56610;48.872;2.400;2023-03-11T16:44:24;4.63;;;2.10;;
69417;SDS011;56610;48.872;2.400;2023-03-11T16:46:51;3.55;;;2.08;;
69417;SDS011;56610;48.872;2.400;2023-03-11T16:49:17;3.78;;;1.95;;
69417;SDS011;56610;48.872;2.400;2023-03-11T16:51:43;3.70;;;2.22;;
69417;SDS011;56610;48.872;2.400;2023-03-11T16:54:09;4.75;;;2.00;;